Currently 64°F in Simi Valley, California, USA
64°F
70°F / 51°F
9 mph W
0.00"
Thursday, April 2, 2020 5:18 PM PDT

Simi Valley, California Weather Summary
Last 36 Hours

Temperature Winds Hourly Humidity Dewpoint
Time Report Norm Report Norm Max Gusts Precip. Rpt. Norm Rpt. Norm Pressure
1Thu 05:18 PM  63.7°F  69°F  9 mph W  6 mph  17 mph  0.00"  61%  48%  49°F  48°F  29.96"
Thu 05:00 PM  63.8°F  69°F  8 mph W  7 mph  22 mph  0.00"  62%  48%  50°F  48°F  29.96"
Thu 04:00 PM  64.6°F  71°F  10 mph W  7 mph  22 mph  0.00"  62%  46%  51°F  48°F  29.96"
Thu 03:00 PM  66.0°F  72°F  11 mph W  7 mph  21 mph  0.00"  61%  45%  52°F  48°F  29.96"
Thu 02:00 PM  67.8°F  72°F  8 mph W  7 mph  17 mph  0.00"  55%  43%  50°F  48°F  29.96"
2Thu 01:43 PM  69.8°F  72°F  7 mph W  6 mph  14 mph  ----  43%  43%  45°F  48°F  29.96"
Thu 01:00 PM  68.4°F  72°F  3 mph S  6 mph  10 mph  0.00"  48%  43%  47°F  47°F  29.97"
Thu 12:00 PM  67.3°F  70°F  4 mph W  6 mph  9 mph  0.00"  49%  46%  47°F  47°F  29.98"
Thu 11:00 AM  63.5°F  67°F  2 mph W  5 mph  8 mph  0.00"  49%  51%  44°F  48°F  29.99"
Thu 10:00 AM  60.9°F  63°F  4 mph S  4 mph  10 mph  0.00"  61%  60%  47°F  48°F  29.98"
Thu 09:00 AM  55.4°F  58°F  1 mph SE  3 mph  7 mph  0.00"  83%  68%  50°F  48°F  29.97"
Thu 08:00 AM  54.7°F  54°F  calm  3 mph  4 mph  0.00"  91%  73%  52°F  45°F  29.96"
Thu 07:00 AM  53.8°F  52°F  calm  3 mph  none  0.00"  90%  74%  51°F  43°F  29.95"
Thu 06:00 AM  53.2°F  52°F  calm  3 mph  5 mph  0.00"  90%  74%  50°F  43°F  29.94"
Thu 05:00 AM  54.2°F  52°F  3 mph W  3 mph  6 mph  0.00"  89%  73%  51°F  43°F  29.94"
Thu 04:00 AM  55.5°F  52°F  calm  2 mph  5 mph  0.00"  87%  73%  51°F  44°F  29.93"
Thu 03:00 AM  53.7°F  53°F  calm  2 mph  3 mph  0.00"  86%  72%  50°F  44°F  29.93"
Thu 02:00 AM  51.8°F  54°F  3 mph W  3 mph  6 mph  0.00"  86%  72%  48°F  44°F  29.93"
3Thu 01:17 AM  51.0°F  54°F  3 mph W  3 mph  6 mph  ----  85%  71%  46°F  45°F  29.93"
Thu 01:00 AM  51.3°F  54°F  1 mph NW  2 mph  5 mph  0.00"  85%  71%  47°F  45°F  29.92"
Thu 12:00 AM  52.1°F  55°F  2 mph W  2 mph  3 mph  0.00"  84%  70%  47°F  45°F  29.92"
Wed 11:00 PM  53.0°F  56°F  2 mph N  2 mph  5 mph  0.00"  83%  69%  48°F  45°F  29.90"
Wed 10:00 PM  55.1°F  57°F  1 mph W  3 mph  8 mph  0.00"  86%  68%  51°F  46°F  29.90"
Wed 09:00 PM  56.9°F  59°F  6 mph W  3 mph  10 mph  0.00"  84%  67%  52°F  47°F  29.88"
Wed 08:00 PM  59.7°F  61°F  7 mph W  3 mph  10 mph  0.00"  78%  63%  52°F  48°F  29.85"
Wed 07:00 PM  64.6°F  64°F  3 mph NW  4 mph  9 mph  0.00"  62%  57%  51°F  48°F  29.84"
Wed 06:00 PM  66.2°F  67°F  6 mph W  6 mph  15 mph  0.00"  57%  51%  50°F  48°F  29.83"
Wed 05:00 PM  68.0°F  69°F  9 mph W  7 mph  16 mph  0.00"  56%  48%  51°F  48°F  29.83"
Wed 04:00 PM  69.6°F  71°F  9 mph W  8 mph  18 mph  0.00"  52%  46%  51°F  48°F  29.83"
Wed 03:00 PM  69.3°F  71°F  8 mph W  7 mph  17 mph  0.00"  53%  45%  51°F  48°F  29.85"
Wed 02:00 PM  70.4°F  72°F  12 mph NW  7 mph  19 mph  0.00"  56%  43%  53°F  48°F  29.86"
Wed 01:00 PM  71.1°F  71°F  9 mph NW  6 mph  19 mph  0.00"  48%  43%  50°F  47°F  29.87"
Wed 12:00 PM  70.2°F  70°F  2 mph W  5 mph  9 mph  0.00"  46%  46%  48°F  47°F  29.88"
Wed 11:00 AM  66.1°F  67°F  3 mph SW  4 mph  7 mph  0.00"  58%  52%  50°F  48°F  29.91"
Wed 10:00 AM  61.6°F  62°F  calm  4 mph  5 mph  0.00"  66%  61%  50°F  48°F  29.91"
Wed 09:00 AM  56.3°F  58°F  calm  3 mph  none  0.00"  76%  70%  49°F  48°F  29.91"
Wed 08:00 AM  51.6°F  53°F  calm  3 mph  none  0.00"  80%  74%  45°F  45°F  29.90"
Wed 07:00 AM  50.3°F  51°F  calm  3 mph  2 mph  0.00"  78%  75%  44°F  43°F  29.88"
Wed 06:00 AM  51.4°F  51°F  calm  3 mph  2 mph  0.00"  77%  75%  44°F  43°F  29.86"

  1. Current weather data. No green row appears if the current weather data is also the high or low for the current day.
  2. High temperature for the current day.
  3. Low temperature for the current day.

The Simi Valley, California weather pages are a service of WeatherCurrents.
Copyright ©2020  WeatherCurrents. All rights reserved. - Submit questions and comments - Privacy Policy

This page automatically refreshes every 10 minutes.